createdAt,value
2023-03-28T00:00:00.862Z,45.67
2023-03-28T00:01:00.890Z,45.67
2023-03-28T00:02:00.910Z,45.57
2023-03-28T00:05:52.794Z,45.78
2023-03-28T00:09:44.622Z,45.67
2023-03-28T00:10:44.632Z,45.78
2023-03-28T00:11:44.649Z,45.78
2023-03-28T00:12:44.674Z,45.78
2023-03-28T00:13:44.700Z,45.87
2023-03-28T00:14:44.720Z,45.87
2023-03-28T00:15:44.760Z,45.57
2023-03-28T00:16:44.738Z,45.98
2023-03-28T00:17:44.819Z,45.78
2023-03-28T00:18:44.750Z,45.87
2023-03-28T00:19:44.782Z,45.78
2023-03-28T00:20:44.816Z,45.67
2023-03-28T00:21:44.856Z,45.67
2023-03-28T00:22:44.822Z,45.78
2023-03-28T00:23:44.842Z,45.57
2023-03-28T00:24:44.892Z,45.78
2023-03-28T00:25:44.869Z,45.67
2023-03-28T00:26:44.897Z,45.67
2023-03-28T00:27:44.912Z,45.67
2023-03-28T00:28:44.925Z,45.57
2023-03-28T00:29:44.928Z,45.67
2023-03-28T00:30:44.934Z,45.78
2023-03-28T00:31:45.026Z,45.47
2023-03-28T00:32:44.999Z,45.79
2023-03-28T00:33:44.944Z,45.90
2023-03-28T00:34:44.968Z,45.79
2023-03-28T00:35:45.028Z,45.90
2023-03-28T00:36:45.013Z,45.79
2023-03-28T00:37:45.018Z,45.98
2023-03-28T00:38:44.990Z,45.87
2023-03-28T00:39:45.022Z,46.00
2023-03-28T00:40:44.996Z,45.78
2023-03-28T00:41:45.040Z,45.79
2023-03-28T00:42:45.017Z,45.87
2023-03-28T00:43:45.027Z,45.78
2023-03-28T00:44:45.041Z,45.79
2023-03-28T00:45:47.250Z,46.10
2023-03-28T00:46:45.103Z,45.98
2023-03-28T00:47:45.105Z,45.78
2023-03-28T00:48:45.064Z,45.67
2023-03-28T00:49:45.086Z,45.67
2023-03-28T00:50:45.106Z,45.90
2023-03-28T00:51:45.134Z,46.10
2023-03-28T00:52:45.109Z,46.10
2023-03-28T00:53:45.168Z,45.90
2023-03-28T00:54:45.135Z,46.00
2023-03-28T00:55:45.147Z,46.00
2023-03-28T00:56:45.228Z,46.00
2023-03-28T00:57:45.155Z,46.10
2023-03-28T00:58:45.182Z,45.90
2023-03-28T00:59:45.193Z,45.70
2023-03-28T01:00:45.221Z,45.90
2023-03-28T01:01:45.300Z,45.87
2023-03-28T01:02:45.355Z,45.67
2023-03-28T01:03:45.331Z,45.67
2023-03-28T01:04:45.299Z,45.47
2023-03-28T01:05:45.313Z,45.79
2023-03-28T01:06:45.341Z,45.90
2023-03-28T01:07:45.362Z,45.90
2023-03-28T01:08:45.382Z,46.00
2023-03-28T01:09:45.467Z,46.00
2023-03-28T01:10:45.434Z,45.90
2023-03-28T01:11:45.460Z,45.87
2023-03-28T01:12:45.473Z,45.79
2023-03-28T01:13:45.535Z,45.90
2023-03-28T01:14:45.738Z,46.00
2023-03-28T01:15:45.568Z,45.90
2023-03-28T01:16:45.555Z,45.90
2023-03-28T01:17:45.620Z,45.78
2023-03-28T01:18:45.611Z,45.90
2023-03-28T01:19:45.639Z,46.10
2023-03-28T01:20:45.617Z,45.87
2023-03-28T01:21:45.650Z,45.78
2023-03-28T01:22:56.238Z,45.78
2023-03-28T01:23:45.635Z,45.67
2023-03-28T01:24:45.658Z,45.78
2023-03-28T01:25:45.708Z,45.90
2023-03-28T01:26:45.696Z,45.90
2023-03-28T01:27:45.777Z,46.00
2023-03-28T01:28:45.711Z,45.78
2023-03-28T01:29:45.733Z,45.90
2023-03-28T01:30:45.763Z,45.98
2023-03-28T01:31:45.904Z,45.90
2023-03-28T01:32:45.817Z,45.78
2023-03-28T01:33:45.826Z,45.87
2023-03-28T01:34:45.842Z,45.59
2023-03-28T01:35:45.919Z,46.00
2023-03-28T01:36:45.873Z,45.90
2023-03-28T01:37:45.867Z,45.90
2023-03-28T01:38:45.855Z,45.78
2023-03-28T01:39:45.883Z,45.78
2023-03-28T01:40:45.894Z,45.90
2023-03-28T01:41:46.170Z,45.59
2023-03-28T01:42:45.919Z,45.50
2023-03-28T01:43:45.933Z,45.90
2023-03-28T01:44:45.943Z,46.00
2023-03-28T01:45:46.009Z,45.90
2023-03-28T01:46:45.967Z,46.00
2023-03-28T01:47:46.038Z,45.39
2023-03-28T01:48:45.985Z,46.10
2023-03-28T01:49:45.971Z,46.00
2023-03-28T01:50:45.991Z,45.90
2023-03-28T01:51:46.026Z,46.00
2023-03-28T01:52:46.047Z,46.10
2023-03-28T01:53:46.080Z,46.00
2023-03-28T01:54:46.095Z,46.10
2023-03-28T01:55:46.110Z,45.59
2023-03-28T01:56:46.222Z,46.00
2023-03-28T01:57:46.382Z,45.90
2023-03-28T01:58:46.155Z,45.90
2023-03-28T01:59:46.170Z,46.00
2023-03-28T02:00:46.254Z,45.79
2023-03-28T02:01:46.218Z,46.00
2023-03-28T02:02:46.298Z,45.90
2023-03-28T02:03:46.243Z,45.59
2023-03-28T02:04:46.260Z,46.00
2023-03-28T02:05:46.300Z,46.00
2023-03-28T02:06:46.262Z,46.20
2023-03-28T02:07:46.284Z,46.10
2023-03-28T02:08:46.309Z,46.00
2023-03-28T02:09:46.324Z,45.90
2023-03-28T02:10:46.364Z,45.79
2023-03-28T02:11:46.374Z,45.90
2023-03-28T02:12:46.409Z,45.79
2023-03-28T02:13:46.413Z,45.79
2023-03-28T02:14:46.388Z,46.10
2023-03-28T02:15:46.425Z,45.79
2023-03-28T02:16:46.437Z,45.90
2023-03-28T02:17:46.544Z,45.90
2023-03-28T02:18:46.455Z,45.90
2023-03-28T02:19:46.472Z,46.10
2023-03-28T02:20:46.493Z,45.90
2023-03-28T02:21:46.503Z,45.59
2023-03-28T02:22:46.539Z,46.00
2023-03-28T02:23:46.571Z,46.00
2023-03-28T02:24:46.574Z,46.02
2023-03-28T02:25:46.594Z,46.02
2023-03-28T02:26:47.822Z,45.90
2023-03-28T02:27:46.624Z,46.00
2023-03-28T02:28:46.638Z,45.90
2023-03-28T02:29:46.717Z,46.00
2023-03-28T02:30:46.687Z,46.10
2023-03-28T02:31:46.756Z,45.90
2023-03-28T02:32:46.737Z,46.10
2023-03-28T02:33:46.737Z,46.10
2023-03-28T02:34:46.763Z,45.79
2023-03-28T02:35:47.080Z,46.00
2023-03-28T02:36:46.804Z,46.10
2023-03-28T02:37:46.829Z,45.59
2023-03-28T02:38:46.858Z,45.82
2023-03-28T02:39:46.893Z,46.22
2023-03-28T02:40:46.870Z,46.20
2023-03-28T02:41:46.880Z,46.10
2023-03-28T02:42:46.894Z,45.90
2023-03-28T02:43:46.910Z,46.00
2023-03-28T02:44:46.950Z,45.79
2023-03-28T02:45:46.987Z,45.79
2023-03-28T02:46:46.938Z,45.79
2023-03-28T02:47:46.971Z,45.79
2023-03-28T02:48:47.188Z,45.90
2023-03-28T02:49:50.490Z,45.92
2023-03-28T02:50:47.005Z,46.02
2023-03-28T02:51:47.014Z,46.10
2023-03-28T02:52:47.259Z,45.90
2023-03-28T02:53:47.072Z,45.79
2023-03-28T02:54:47.052Z,46.10
2023-03-28T02:55:47.066Z,46.00
2023-03-28T02:56:47.105Z,45.90
2023-03-28T02:57:47.076Z,45.90
2023-03-28T02:58:47.098Z,46.00
2023-03-28T02:59:47.131Z,45.90
2023-03-28T03:00:47.153Z,45.90
2023-03-28T03:01:47.314Z,45.90
2023-03-28T03:02:47.228Z,46.00
2023-03-28T03:03:47.260Z,46.00
2023-03-28T03:04:47.223Z,46.00
2023-03-28T03:05:47.247Z,45.90
2023-03-28T03:06:47.271Z,46.00
2023-03-28T03:07:47.302Z,46.00
2023-03-28T03:08:47.336Z,45.90
2023-03-28T03:09:47.350Z,45.90
2023-03-28T03:10:47.374Z,46.00
2023-03-28T03:11:47.385Z,45.90
2023-03-28T03:12:47.420Z,46.00
2023-03-28T03:13:47.408Z,46.00
2023-03-28T03:14:47.433Z,46.10
2023-03-28T03:15:47.477Z,45.90
2023-03-28T03:16:47.463Z,45.90
2023-03-28T03:17:47.599Z,46.00
2023-03-28T03:18:47.492Z,45.90
2023-03-28T03:19:47.506Z,46.10
2023-03-28T03:20:47.551Z,46.10
2023-03-28T03:21:47.520Z,46.00
2023-03-28T03:22:47.640Z,46.00
2023-03-28T03:23:47.573Z,46.00
2023-03-28T03:24:47.595Z,46.00
2023-03-28T03:25:47.616Z,46.10
2023-03-28T03:26:47.644Z,46.00
2023-03-28T03:27:47.700Z,45.90
2023-03-28T03:28:47.690Z,46.10
2023-03-28T03:29:47.714Z,46.00
2023-03-28T03:30:47.739Z,46.00
2023-03-28T03:31:47.930Z,45.90
2023-03-28T03:32:48.010Z,46.00
2023-03-28T03:33:47.787Z,46.00
2023-03-28T03:34:47.761Z,46.00
2023-03-28T03:35:47.817Z,45.90
2023-03-28T03:36:47.773Z,46.00
2023-03-28T03:37:47.789Z,46.00
2023-03-28T03:38:47.803Z,46.00
2023-03-28T03:39:47.847Z,46.00
2023-03-28T03:40:47.825Z,45.90
2023-03-28T03:41:47.850Z,45.90
2023-03-28T03:42:47.876Z,46.00
2023-03-28T03:43:47.897Z,45.79
2023-03-28T03:44:47.928Z,45.79
2023-03-28T03:45:47.978Z,46.10
2023-03-28T03:46:47.955Z,46.20
2023-03-28T03:47:47.981Z,46.10
2023-03-28T03:48:49.843Z,45.90
2023-03-28T03:49:47.980Z,46.00
2023-03-28T03:50:47.958Z,46.00
2023-03-28T03:51:47.982Z,46.00
2023-03-28T03:52:48.013Z,46.12
2023-03-28T03:53:48.023Z,46.10
2023-03-28T03:54:48.049Z,46.10
2023-03-28T03:55:48.079Z,46.12
2023-03-28T03:56:48.114Z,46.22
2023-03-28T03:57:48.137Z,46.22
2023-03-28T03:58:48.117Z,46.22
2023-03-28T03:59:48.139Z,46.02
2023-03-28T04:00:48.166Z,46.22
2023-03-28T04:01:48.199Z,46.12
2023-03-28T04:02:48.362Z,46.33
2023-03-28T04:03:48.356Z,46.33
2023-03-28T04:04:48.217Z,46.02
2023-03-28T04:05:48.323Z,46.33
2023-03-28T04:06:48.242Z,45.82
2023-03-28T04:07:48.287Z,46.12
2023-03-28T04:08:48.263Z,46.12
2023-03-28T04:09:48.292Z,46.22
2023-03-28T04:10:48.309Z,46.12
2023-03-28T04:11:48.333Z,46.33
2023-03-28T04:12:48.361Z,46.33
2023-03-28T04:13:48.353Z,46.33
2023-03-28T04:14:48.356Z,46.22
2023-03-28T04:15:48.417Z,46.22
2023-03-28T04:16:48.413Z,46.22
2023-03-28T04:17:48.480Z,46.33
2023-03-28T04:18:48.441Z,46.42
2023-03-28T04:19:48.452Z,46.33
2023-03-28T04:20:48.477Z,46.53
2023-03-28T04:21:48.550Z,46.42
2023-03-28T04:22:48.487Z,46.42
2023-03-28T04:23:48.521Z,46.42
2023-03-28T04:24:48.541Z,46.42
2023-03-28T04:25:48.558Z,46.42
2023-03-28T04:26:48.574Z,46.42
2023-03-28T04:27:48.599Z,46.42
2023-03-28T04:28:48.614Z,46.42
2023-03-28T04:29:48.649Z,46.53
2023-03-28T04:30:48.637Z,46.53
2023-03-28T04:31:48.705Z,46.42
2023-03-28T04:32:48.716Z,46.42
2023-03-28T04:33:48.718Z,46.42
2023-03-28T04:34:48.773Z,46.42
2023-03-28T04:35:48.820Z,46.73
2023-03-28T04:36:48.784Z,46.83
2023-03-28T04:37:48.824Z,46.73
2023-03-28T04:38:48.789Z,46.73
2023-03-28T04:39:48.815Z,46.62
2023-03-28T04:40:48.843Z,46.53
2023-03-28T04:41:48.930Z,46.42
2023-03-28T04:42:48.887Z,46.62
2023-03-28T04:43:48.907Z,46.53
2023-03-28T04:44:48.922Z,46.73
2023-03-28T04:45:48.994Z,46.62
2023-03-28T04:46:48.916Z,47.13
2023-03-28T04:47:48.951Z,48.64
2023-03-28T04:48:48.929Z,49.37
2023-03-28T04:49:48.935Z,49.07
2023-03-28T04:50:48.939Z,48.46
2023-03-28T04:51:48.956Z,48.06
2023-03-28T04:52:48.977Z,47.96
2023-03-28T04:53:49.024Z,47.86
2023-03-28T04:54:49.041Z,47.66
2023-03-28T04:55:49.052Z,47.58
2023-03-28T04:56:49.050Z,47.27
2023-03-28T04:57:49.023Z,47.07
2023-03-28T04:58:49.011Z,47.07
2023-03-28T04:59:49.048Z,46.77
2023-03-28T05:02:14.935Z,44.98
2023-03-28T05:03:15.055Z,42.58
2023-03-28T05:04:14.940Z,43.18
2023-03-28T05:05:14.990Z,43.91
2023-03-28T05:06:14.954Z,41.69
2023-03-28T05:07:14.986Z,40.39
2023-03-28T05:08:15.000Z,42.61
2023-03-28T05:09:15.036Z,42.92
2023-03-28T05:10:15.015Z,43.93
2023-03-28T05:11:14.995Z,44.74
2023-03-28T05:12:15.014Z,44.92
2023-03-28T05:13:15.035Z,45.30
2023-03-28T05:14:15.049Z,45.28
2023-03-28T05:15:23.093Z,45.26
2023-03-28T05:16:15.144Z,45.36
2023-03-28T05:17:15.121Z,45.66
2023-03-28T05:18:15.147Z,45.84
2023-03-28T05:19:15.180Z,46.04
2023-03-28T05:20:15.186Z,45.94
2023-03-28T05:21:15.164Z,45.64
2023-03-28T05:22:15.186Z,45.72
2023-03-28T05:23:15.210Z,45.42
2023-03-28T05:24:15.236Z,45.32
2023-03-28T05:25:15.295Z,45.21
2023-03-28T05:26:15.273Z,45.52
2023-03-28T05:27:15.306Z,45.42
2023-03-28T05:28:15.302Z,45.09
2023-03-28T05:29:15.288Z,44.81
2023-03-28T05:30:15.286Z,45.32
2023-03-28T05:31:15.324Z,45.29
2023-03-28T05:32:15.324Z,45.21
2023-03-28T05:33:15.406Z,45.39
2023-03-28T05:34:15.370Z,45.29
2023-03-28T05:35:15.397Z,45.39
2023-03-28T05:36:15.460Z,45.29
2023-03-28T05:37:15.437Z,45.09
2023-03-28T05:38:15.481Z,45.09
2023-03-28T05:39:15.452Z,44.79
2023-03-28T05:40:15.497Z,45.09
2023-03-28T05:41:15.517Z,45.00
2023-03-28T05:42:15.478Z,45.19
2023-03-28T05:43:15.517Z,45.19
2023-03-28T05:44:17.468Z,45.09
2023-03-28T05:45:15.552Z,45.09
2023-03-28T05:46:15.620Z,45.09
2023-03-28T05:47:15.591Z,45.09
2023-03-28T05:51:07.421Z,44.97
2023-03-28T05:53:33.365Z,44.57
2023-03-28T05:54:33.382Z,44.77
2023-03-28T05:55:35.429Z,44.57
2023-03-28T05:56:33.399Z,44.67
2023-03-28T05:57:33.378Z,44.67
2023-03-28T05:58:33.421Z,44.57
2023-03-28T05:59:33.397Z,44.77
2023-03-28T06:00:33.437Z,44.67
2023-03-28T06:01:33.461Z,44.47
2023-03-28T06:02:33.503Z,44.47
2023-03-28T06:03:33.519Z,44.57
2023-03-28T06:04:33.536Z,44.47
2023-03-28T06:05:33.538Z,44.45
2023-03-28T06:06:33.532Z,44.55
2023-03-28T06:07:42.036Z,44.65
2023-03-28T06:08:33.533Z,44.67
2023-03-28T06:09:33.571Z,44.37
2023-03-28T06:10:33.564Z,44.55
2023-03-28T06:11:33.600Z,44.55
2023-03-28T06:12:33.690Z,44.24
2023-03-28T06:13:33.622Z,44.45
2023-03-28T06:14:33.637Z,44.35
2023-03-28T06:15:33.665Z,44.45
2023-03-28T06:16:33.703Z,44.45
2023-03-28T06:17:33.726Z,44.45
2023-03-28T06:18:33.713Z,44.35
2023-03-28T06:19:33.714Z,44.55
2023-03-28T06:20:33.744Z,44.45
2023-03-28T06:21:33.720Z,44.45
2023-03-28T06:22:33.744Z,44.35
2023-03-28T06:23:33.786Z,44.55
2023-03-28T06:24:33.788Z,44.55
2023-03-28T06:25:33.784Z,44.75
2023-03-28T06:26:33.772Z,44.55
2023-03-28T06:27:33.786Z,44.65
2023-03-28T06:28:33.801Z,44.75
2023-03-28T06:29:33.778Z,44.75
2023-03-28T06:30:33.769Z,44.75
2023-03-28T06:31:33.901Z,44.75
2023-03-28T06:32:33.893Z,44.24
2023-03-28T06:33:33.827Z,44.55
2023-03-28T06:34:33.824Z,44.27
2023-03-28T06:35:33.849Z,44.77
2023-03-28T06:36:33.792Z,44.77
2023-03-28T06:37:33.871Z,44.97
2023-03-28T06:38:33.914Z,44.97
2023-03-28T06:39:33.887Z,45.17
2023-03-28T06:40:33.867Z,45.07
2023-03-28T06:41:33.872Z,44.87
2023-03-28T06:42:33.925Z,44.97
2023-03-28T06:43:33.944Z,45.07
2023-03-28T06:44:33.955Z,45.17
2023-03-28T06:45:33.933Z,45.17
2023-03-28T06:46:34.002Z,45.07
2023-03-28T06:47:33.983Z,45.37
2023-03-28T06:48:36.246Z,45.57
2023-03-28T06:49:34.004Z,45.67
2023-03-28T06:50:33.994Z,45.67
2023-03-28T06:51:33.977Z,45.75
2023-03-28T06:52:34.006Z,45.75
2023-03-28T06:53:34.033Z,45.86
2023-03-28T06:54:34.031Z,45.95
2023-03-28T06:55:34.057Z,45.86
2023-03-28T06:56:34.044Z,45.65
2023-03-28T06:57:34.076Z,45.75
2023-03-28T06:58:34.112Z,45.95
2023-03-28T06:59:34.111Z,45.95
2023-03-28T07:00:34.156Z,45.95
2023-03-28T07:01:34.151Z,45.75
2023-03-28T07:02:34.233Z,45.65
2023-03-28T07:03:34.246Z,45.95
2023-03-28T07:04:34.159Z,46.06
2023-03-28T07:05:34.200Z,45.75
2023-03-28T07:06:34.216Z,45.65
2023-03-28T07:07:34.204Z,45.95
2023-03-28T07:08:34.237Z,45.45
2023-03-28T07:09:34.265Z,45.65
2023-03-28T07:10:34.253Z,45.65
2023-03-28T07:11:34.282Z,45.65
2023-03-28T07:12:34.275Z,45.75
2023-03-28T07:13:34.307Z,45.35
2023-03-28T07:14:34.280Z,45.75
2023-03-28T07:15:34.314Z,45.86
2023-03-28T07:16:34.575Z,45.65
2023-03-28T07:17:34.389Z,45.86
2023-03-28T07:18:34.355Z,45.55
2023-03-28T07:19:34.341Z,45.35
2023-03-28T07:20:34.371Z,45.65
2023-03-28T07:21:34.400Z,45.55
2023-03-28T07:22:34.387Z,45.55
2023-03-28T07:23:34.410Z,45.45
2023-03-28T07:24:34.431Z,45.95
2023-03-28T07:25:34.462Z,46.06
2023-03-28T07:26:34.491Z,45.65
2023-03-28T07:27:34.483Z,45.95
2023-03-28T07:28:34.476Z,45.75
2023-03-28T07:29:34.470Z,46.06
2023-03-28T07:30:34.460Z,45.75
2023-03-28T07:31:34.586Z,45.86
2023-03-28T07:32:47.139Z,45.86
2023-03-28T07:33:37.264Z,45.55
2023-03-28T07:34:34.536Z,46.06
2023-03-28T07:35:34.537Z,45.95
2023-03-28T07:36:34.516Z,46.06
2023-03-28T07:37:34.564Z,45.95
2023-03-28T07:38:34.571Z,46.06
2023-03-28T07:39:34.568Z,46.06
2023-03-28T07:40:34.579Z,45.95
2023-03-28T07:41:34.561Z,45.95
2023-03-28T07:42:34.547Z,45.75
2023-03-28T07:43:34.546Z,45.95
2023-03-28T07:44:34.532Z,46.06
2023-03-28T07:45:34.605Z,46.06
2023-03-28T07:46:34.569Z,45.95
2023-03-28T07:47:34.662Z,45.75
2023-03-28T07:48:34.639Z,46.15
2023-03-28T07:49:34.632Z,45.95
2023-03-28T07:50:34.612Z,45.95
2023-03-28T07:51:34.652Z,45.86
2023-03-28T07:52:34.653Z,46.15
2023-03-28T07:53:34.643Z,45.75
2023-03-28T07:54:34.670Z,45.55
2023-03-28T07:55:39.438Z,45.55
2023-03-28T07:56:34.700Z,45.65
2023-03-28T07:57:34.701Z,45.35
2023-03-28T07:58:34.686Z,45.65
2023-03-28T07:59:34.683Z,45.75
2023-03-28T08:00:34.693Z,46.06
2023-03-28T08:01:34.719Z,45.65
2023-03-28T08:02:34.839Z,45.95
2023-03-28T08:03:34.859Z,45.75
2023-03-28T08:04:34.789Z,45.63
2023-03-28T08:05:34.808Z,45.23
2023-03-28T08:06:34.759Z,45.43
2023-03-28T08:07:34.783Z,44.93
2023-03-28T08:08:34.823Z,45.03
2023-03-28T08:09:34.818Z,45.35
2023-03-28T08:10:34.841Z,45.05
2023-03-28T08:11:34.872Z,44.95
2023-03-28T08:12:34.906Z,45.33
2023-03-28T08:13:34.951Z,45.43
2023-03-28T08:14:34.935Z,45.23
2023-03-28T08:15:34.986Z,44.93
2023-03-28T08:16:34.987Z,44.73
2023-03-28T08:17:34.983Z,44.93
2023-03-28T08:18:34.969Z,44.83
2023-03-28T08:19:34.942Z,45.03
2023-03-28T08:20:34.965Z,44.93
2023-03-28T08:21:34.977Z,45.10
2023-03-28T08:22:34.963Z,45.21
2023-03-28T08:23:35.267Z,45.01
2023-03-28T08:24:36.156Z,45.31
2023-03-28T08:25:34.964Z,45.21
2023-03-28T08:26:35.026Z,45.10
2023-03-28T08:27:35.008Z,44.71
2023-03-28T08:28:35.118Z,44.91
2023-03-28T08:29:34.997Z,44.81
2023-03-28T08:30:34.975Z,44.40
2023-03-28T08:31:35.064Z,44.31
2023-03-28T08:32:35.106Z,45.10
2023-03-28T08:33:35.071Z,45.01
2023-03-28T08:34:35.055Z,44.81
2023-03-28T08:35:35.096Z,44.91
2023-03-28T08:36:35.076Z,44.91
2023-03-28T08:37:35.063Z,44.81
2023-03-28T08:38:35.088Z,44.71
2023-03-28T08:39:35.372Z,44.51
2023-03-28T08:40:35.116Z,44.71
2023-03-28T08:41:35.140Z,44.81
2023-03-28T08:42:35.162Z,44.91
2023-03-28T08:43:35.193Z,44.91
2023-03-28T08:44:35.232Z,44.68
2023-03-28T08:45:35.272Z,44.79
2023-03-28T08:46:35.300Z,44.59
2023-03-28T08:47:35.419Z,44.48
2023-03-28T08:48:35.305Z,44.59
2023-03-28T08:49:35.329Z,44.68
2023-03-28T08:50:35.325Z,44.59
2023-03-28T08:51:35.346Z,44.48
2023-03-28T08:52:35.503Z,44.38
2023-03-28T08:53:35.348Z,44.40
2023-03-28T08:54:35.348Z,44.59
2023-03-28T08:55:35.339Z,44.48
2023-03-28T08:56:35.722Z,44.68
2023-03-28T08:57:35.377Z,44.59
2023-03-28T08:58:35.417Z,44.60
2023-03-28T08:59:35.531Z,44.68
2023-03-28T09:00:35.465Z,44.59
2023-03-28T09:01:35.775Z,44.48
2023-03-28T09:02:35.689Z,44.36
2023-03-28T09:03:35.627Z,44.26
2023-03-28T09:04:35.598Z,44.26
2023-03-28T09:05:35.602Z,44.06
2023-03-28T09:06:35.579Z,44.16
2023-03-28T09:07:35.634Z,44.16
2023-03-28T09:08:35.676Z,44.06
2023-03-28T09:09:35.637Z,44.06
2023-03-28T09:10:35.672Z,43.96
2023-03-28T09:11:35.699Z,43.96
2023-03-28T09:12:35.656Z,43.96
2023-03-28T09:13:35.663Z,43.96
2023-03-28T09:14:35.675Z,43.96
2023-03-28T09:15:35.723Z,43.96
2023-03-28T09:16:35.815Z,43.96
2023-03-28T09:17:35.750Z,43.86
2023-03-28T09:18:35.705Z,43.84
2023-03-28T09:19:47.153Z,43.84
2023-03-28T09:20:35.712Z,43.74
2023-03-28T09:21:35.788Z,43.74
2023-03-28T09:22:35.788Z,43.44
2023-03-28T09:23:35.752Z,43.54
2023-03-28T09:24:35.810Z,43.64
2023-03-28T09:25:35.854Z,43.64
2023-03-28T09:26:35.883Z,43.44
2023-03-28T09:27:35.807Z,43.64
2023-03-28T09:28:35.834Z,43.64
2023-03-28T09:29:35.848Z,43.64
2023-03-28T09:30:35.868Z,43.74
2023-03-28T09:31:35.929Z,43.84
2023-03-28T09:32:35.943Z,43.64
2023-03-28T09:33:35.909Z,43.84
2023-03-28T09:34:35.899Z,43.64
2023-03-28T09:35:36.107Z,43.66
2023-03-28T09:36:47.731Z,43.96
2023-03-28T09:37:35.913Z,43.84
2023-03-28T09:38:35.935Z,43.76
2023-03-28T09:39:35.981Z,43.74
2023-03-28T09:40:36.058Z,43.74
2023-03-28T09:41:35.986Z,43.64
2023-03-28T09:42:36.001Z,43.74
2023-03-28T09:43:36.026Z,43.54
2023-03-28T09:44:47.179Z,43.44
2023-03-28T09:45:36.128Z,43.54
2023-03-28T09:46:36.067Z,43.74
2023-03-28T09:47:36.208Z,43.74
2023-03-28T09:48:36.290Z,43.84
2023-03-28T09:49:36.526Z,43.54
2023-03-28T09:50:36.148Z,43.44
2023-03-28T09:51:36.184Z,43.54
2023-03-28T09:52:36.210Z,43.74
2023-03-28T09:53:36.239Z,43.74
2023-03-28T09:54:36.263Z,43.54
2023-03-28T09:55:36.252Z,43.44
2023-03-28T09:56:36.342Z,42.63
2023-03-28T09:57:36.293Z,43.64
2023-03-28T09:58:36.312Z,43.94
2023-03-28T09:59:36.338Z,43.74
2023-03-28T10:00:37.130Z,43.64
2023-03-28T10:01:36.412Z,43.14
2023-03-28T10:02:36.476Z,43.64
2023-03-28T10:03:36.371Z,43.74
2023-03-28T10:04:36.489Z,43.54
2023-03-28T10:05:36.440Z,43.54
2023-03-28T10:06:36.434Z,43.34
2023-03-28T10:07:36.437Z,43.44
2023-03-28T10:08:36.460Z,43.34
2023-03-28T10:09:36.450Z,43.44
2023-03-28T10:10:36.471Z,43.54
2023-03-28T10:11:36.495Z,43.54
2023-03-28T10:12:36.527Z,43.44
2023-03-28T10:13:36.508Z,43.34
2023-03-28T10:14:36.546Z,43.44
2023-03-28T10:15:36.564Z,43.42
2023-03-28T10:16:36.531Z,43.42
2023-03-28T10:17:36.938Z,43.42
2023-03-28T10:18:36.550Z,43.42
2023-03-28T10:19:36.571Z,43.42
2023-03-28T10:20:36.626Z,43.42
2023-03-28T10:21:36.607Z,43.42
2023-03-28T10:22:36.641Z,43.14
2023-03-28T10:23:36.629Z,43.42
2023-03-28T10:24:36.651Z,43.52
2023-03-28T10:25:36.690Z,43.32
2023-03-28T10:26:36.690Z,43.32
2023-03-28T10:27:36.720Z,43.42
2023-03-28T10:28:36.771Z,43.54
2023-03-28T10:29:36.765Z,43.54
2023-03-28T10:30:36.765Z,43.42
2023-03-28T10:31:36.794Z,43.32
2023-03-28T10:32:36.823Z,43.32
2023-03-28T10:33:36.774Z,43.32
2023-03-28T10:34:36.793Z,43.42
2023-03-28T10:35:36.876Z,43.32
2023-03-28T10:36:36.852Z,42.82
2023-03-28T10:37:36.865Z,43.22
2023-03-28T10:38:36.900Z,43.12
2023-03-28T10:39:36.893Z,43.22
2023-03-28T10:40:36.965Z,43.12
2023-03-28T10:41:36.950Z,43.22
2023-03-28T10:42:36.976Z,43.32
2023-03-28T10:43:36.984Z,43.14
2023-03-28T10:44:37.004Z,43.42
2023-03-28T10:45:36.963Z,43.42
2023-03-28T10:46:36.981Z,43.22
2023-03-28T10:47:36.966Z,43.12
2023-03-28T10:48:36.936Z,42.91
2023-03-28T10:49:36.941Z,43.22
2023-03-28T10:50:37.147Z,43.22
2023-03-28T10:51:36.953Z,43.02
2023-03-28T10:52:36.929Z,43.42
2023-03-28T10:53:36.954Z,43.32
2023-03-28T10:54:36.992Z,43.12
2023-03-28T10:55:36.932Z,43.14
2023-03-28T10:56:36.973Z,43.62
2023-03-28T10:57:36.936Z,43.72
2023-03-28T10:58:36.922Z,43.72
2023-03-28T10:59:36.952Z,43.62
2023-03-28T11:00:37.005Z,42.82
2023-03-28T11:01:37.117Z,42.82
2023-03-28T11:02:37.108Z,42.52
2023-03-28T11:03:37.065Z,42.74
2023-03-28T11:04:37.011Z,43.12
2023-03-28T11:05:37.057Z,42.82
2023-03-28T11:06:37.041Z,42.91
2023-03-28T11:07:37.067Z,42.52
2023-03-28T11:08:37.054Z,42.91
2023-03-28T11:09:37.077Z,42.83
2023-03-28T11:10:37.125Z,42.83
2023-03-28T11:11:37.128Z,42.83
2023-03-28T11:12:47.615Z,42.94
2023-03-28T11:13:37.174Z,42.74
2023-03-28T11:14:37.171Z,43.04
2023-03-28T11:15:37.195Z,43.12
2023-03-28T11:16:37.349Z,42.91
2023-03-28T11:17:37.253Z,43.02
2023-03-28T11:18:37.236Z,43.02
2023-03-28T11:19:37.225Z,43.02
2023-03-28T11:20:37.223Z,42.82
2023-03-28T11:21:37.223Z,42.91
2023-03-28T11:22:37.212Z,42.83
2023-03-28T11:23:38.524Z,42.83
2023-03-28T11:24:37.208Z,43.04
2023-03-28T11:25:37.212Z,42.74
2023-03-28T11:26:37.235Z,42.83
2023-03-28T11:27:37.228Z,43.12
2023-03-28T11:28:37.247Z,43.12
2023-03-28T11:29:43.145Z,43.12
2023-03-28T11:30:37.261Z,42.91
2023-03-28T11:31:37.334Z,43.02
2023-03-28T11:32:37.309Z,42.91
2023-03-28T11:33:37.331Z,42.91
2023-03-28T11:34:37.283Z,42.52
2023-03-28T11:35:37.328Z,42.72
2023-03-28T11:36:37.282Z,42.52
2023-03-28T11:37:37.283Z,42.21
2023-03-28T11:38:37.314Z,43.02
2023-03-28T11:39:37.313Z,42.33
2023-03-28T11:40:37.308Z,42.91
2023-03-28T11:41:37.293Z,42.72
2023-03-28T11:42:37.297Z,42.74
2023-03-28T11:43:37.298Z,42.21
2023-03-28T11:44:37.307Z,41.93
2023-03-28T11:45:50.423Z,42.02
2023-03-28T11:46:37.320Z,41.93
2023-03-28T11:47:37.336Z,41.63
2023-03-28T11:48:37.326Z,41.13
2023-03-28T11:49:37.300Z,41.53
2023-03-28T11:50:37.321Z,41.63
2023-03-28T11:51:37.406Z,41.63
2023-03-28T11:52:37.356Z,41.41
2023-03-28T11:53:37.336Z,41.11
2023-03-28T11:54:37.363Z,40.91
2023-03-28T11:55:37.356Z,40.81
2023-03-28T11:56:37.412Z,40.71
2023-03-28T11:57:37.385Z,40.81
2023-03-28T11:58:37.406Z,40.81
2023-03-28T11:59:37.425Z,40.91
2023-03-28T12:00:39.019Z,40.91
2023-03-28T12:01:37.517Z,41.01
2023-03-28T12:02:37.544Z,40.81
2023-03-28T12:03:37.803Z,40.71
2023-03-28T12:04:37.529Z,40.71
2023-03-28T12:05:37.507Z,40.61
2023-03-28T12:06:37.536Z,40.61
2023-03-28T12:07:37.563Z,40.51
2023-03-28T12:08:37.581Z,40.31
2023-03-28T12:09:37.568Z,40.11
2023-03-28T12:10:37.570Z,40.01
2023-03-28T12:11:37.568Z,40.11
2023-03-28T12:12:37.566Z,40.11
2023-03-28T12:13:45.171Z,40.01
2023-03-28T12:14:37.590Z,39.81
2023-03-28T12:15:37.595Z,39.81
2023-03-28T12:16:38.705Z,39.71
2023-03-28T12:17:37.651Z,39.91
2023-03-28T12:18:37.580Z,39.81
2023-03-28T12:19:37.603Z,39.61
2023-03-28T12:20:37.662Z,39.61
2023-03-28T12:21:37.652Z,39.59
2023-03-28T12:22:37.646Z,39.49
2023-03-28T12:23:37.701Z,39.59
2023-03-28T12:24:37.731Z,39.51
2023-03-28T12:25:37.708Z,39.61
2023-03-28T12:26:37.678Z,39.81
2023-03-28T12:27:37.720Z,39.71
2023-03-28T12:28:37.740Z,39.81
2023-03-28T12:29:37.772Z,39.91
2023-03-28T12:30:37.837Z,39.51
2023-03-28T12:31:37.824Z,39.71
2023-03-28T12:32:37.898Z,39.81
2023-03-28T12:33:37.865Z,39.61
2023-03-28T12:34:37.885Z,39.61
2023-03-28T12:35:37.960Z,39.81
2023-03-28T12:36:37.976Z,39.51
2023-03-28T12:37:37.940Z,39.71
2023-03-28T12:38:37.976Z,39.81
2023-03-28T12:39:37.950Z,39.81
2023-03-28T12:40:37.992Z,39.81
2023-03-28T12:41:37.974Z,39.81
2023-03-28T12:42:37.995Z,39.81
2023-03-28T12:43:38.042Z,39.61
2023-03-28T12:44:38.032Z,39.71
2023-03-28T12:45:38.063Z,39.40
2023-03-28T12:46:38.143Z,39.51
2023-03-28T12:47:38.146Z,39.71
2023-03-28T12:48:38.117Z,39.61
2023-03-28T12:49:38.106Z,39.51
2023-03-28T12:50:38.095Z,39.61
2023-03-28T12:51:38.100Z,39.71
2023-03-28T12:52:38.202Z,39.59
2023-03-28T12:53:38.119Z,39.59
2023-03-28T12:54:38.143Z,39.59
2023-03-28T12:55:38.179Z,39.49
2023-03-28T12:56:38.190Z,39.29
2023-03-28T12:57:39.408Z,39.29
2023-03-28T12:58:38.139Z,39.39
2023-03-28T12:59:38.126Z,39.49
2023-03-28T13:00:38.175Z,39.59
2023-03-28T13:01:38.180Z,39.59
2023-03-28T13:02:38.239Z,39.49
2023-03-28T13:03:38.189Z,39.49